Accueil
METAR-TAF:

METAR-TAF

Aéroports :

Huesca, Espagne

Aéroport de Huesca-Pyrénées

latitude: 42-04-32N, longitude: 0-18-58W, altitude: 539 m

Observation

Le bulletin a été fait il y a 23 minutes, à 09:30 UTC
Vent 2 kt de est/sud-est
Température 27°C
Humidité 54%
Pression 1022 hPa
Visibilité 10 km ou plus
pas de nuages en-dessous de 1500 mètres et pas de cumulonimbus.

METAR: LEHC 170930Z 11002KT CAVOK 27/17 Q1022

Heure: 11:53 (09:53 UTC)

Prévision

Le bulletin a été fait il y a 1 heure et 53 minutes, à 08:00 UTC
Prévision valable du 17 à 09 UTC au 18 à 09 UTC
Vent 6 kt de est
Visibilité 10 km ou plus
pas de nuages en-dessous de 1500 mètres et pas de cumulonimbus.
Temporairement
du 17 à 12 UTC au 17 à 16 UTC
Vent 8 kt de sud
Evoluant progressivement
du 17 à 20 UTC au 17 à 22 UTC
Vent 8 kt de est

TAF: LEHC 170800Z 1709/1809 10006KT CAVOK TX35/1715Z TN21/1805Z TEMPO 1712/1716 18008KT BECMG 1720/1722 10008KT

Observations et prévisions météorologiques de plus de 4000 aéroports (messages METAR et TAF).

Les stations disponibles sont représentées par des disques jaunes et rouges sur la carte.

Passer la souris dessus pour voir le nom de la station.

Cliquer dessus pour voir les observations et prévisions météorologiques.

Pour changer de carte: cliquez sur les boutons verts avec une croix noire pour zoomer, sur le bouton vert avec un tiret pour effectuer un zoom arrière, ou sur les flèches vertes pour les cartes adjacentes.


METAR-TAF: